This is the latest recevied weather packets stored in our database for station/object K9ABJ. If no packets are shown the sender has not sent any weather packets the latest 10 day(s).
| Time | Temp. | Humidity | Pressure | Rain* | Wind** | Luminosity | Snow |
|---|---|---|---|---|---|---|---|
| 1788020220 | 27.22° C | 63% | 1022.5 hPa | 0 mm | - | 536 W/m² | - |
| 1788019915 | 27.22° C | 65% | 1022.8 hPa | 0 mm | - | 393 W/m² | - |
| 1788019610 | 27.22° C | 65% | 1022.7 hPa | 0 mm | - | 520 W/m² | - |
| 1788019310 | 25.56° C | 68% | 1022.9 hPa | 0 mm | - | 568 W/m² | - |
| 1788019008 | 26.67° C | 65% | 1022.9 hPa | 0 mm | - | 385 W/m² | - |
| 1788018703 | 26.11° C | 69% | 1022.8 hPa | 0 mm | - | 388 W/m² | - |
| 1788018402 | 25.56° C | 68% | 1022.9 hPa | 0 mm | - | 404 W/m² | - |
| 1788018097 | 25° C | 69% | 1022.8 hPa | 0 mm | - | 404 W/m² | - |
| 1788017793 | 26.67° C | 66% | 1023 hPa | 0 mm | - | 551 W/m² | - |
| 1788017489 | 25.56° C | 68% | 1023 hPa | 0 mm | - | 519 W/m² | - |
| 1788017187 | 25° C | 71% | 1022.7 hPa | 0 mm | - | 467 W/m² | - |
| 1788016886 | 25.56° C | 69% | 1022.7 hPa | 0 mm | - | 460 W/m² | - |
| 1788016585 | 25° C | 72% | 1022.5 hPa | 0 mm | - | 478 W/m² | - |
| 1788016280 | 23.89° C | 74% | 1022.6 hPa | 0 mm | - | 478 W/m² | - |
| 1788015979 | 24.44° C | 72% | 1023.1 hPa | 0 mm | - | 300 W/m² | - |
| 1788015674 | 24.44° C | 73% | 1023.1 hPa | 0 mm | - | 297 W/m² | - |
| 1788015373 | 25.56° C | 70% | 1023 hPa | 0 mm | - | 285 W/m² | - |
| 1788015068 | 25.56° C | 72% | 1023 hPa | 0 mm | - | 354 W/m² | - |
| 1788014766 | 24.44° C | 72% | 1022.9 hPa | 0 mm | - | 456 W/m² | - |
| 1788014463 | 23.89° C | 74% | 1022.7 hPa | 0 mm | - | 451 W/m² | - |
| 1788014163 | 23.89° C | 75% | 1022.9 hPa | 0 mm | - | 421 W/m² | - |
| 1788013863 | 22.78° C | 75% | 1023 hPa | 0 mm | - | 268 W/m² | - |
| 1788013562 | 22.78° C | 75% | 1023 hPa | 0 mm | - | 268 W/m² | - |
| 1788013256 | 22.78° C | 76% | 1022.7 hPa | 0 mm | - | 269 W/m² | - |
| 1788012956 | 22.78° C | 75% | 1022.8 hPa | 0 mm | - | 396 W/m² | - |
* Rain latest hour (hover to see other rain measurements)
** Current wind speed in m/s (hover to see current wind gust speed)